Airfield :
LOGIN :

Register | Disclaimer

   EN    FR    IT 

 










Legend :    VFR   Marginal VFR   IFR   Intensive IFR   Very Intensive IFR
Visi :
Ceiling :
>= 8 km
>= 3000ft
5 to 8 km
1000 to 3000 ft
1500m to 5 km
500 to 1000 ft
800 to 1500m
200 to 500 ft
< 800m
< 200 ft
Symbols :   Thunderstorms  Fog  Heavy snow  Heavy precipitations  Wind > 20 kt
SIGMETs :     Misc.  Thunderstorms  Icing  Turbulence  Mountain Waves  Volcanic Ashes






- Airport Elevation : 1161 ft
- IATA code : RJL


LELO - Logroño-Agoncillo

CURRENT METAR :
  • 281200Z AUTO VRB02KT CAVOK 15/03 Q1018

EXPIRED METARs :
  • 281130Z AUTO VRB03KT CAVOK 14/03 Q1019
  • 281100Z VRB04KT CAVOK 13/04 Q1019
  • 281030Z 26007KT 230V300 CAVOK 12/03 Q1019
  • 281000Z 26007KT 230V310 CAVOK 11/04 Q1019
  • 280930Z 26007KT 220V290 CAVOK 09/03 Q1019

TAF TAF LELO
Valid from the 28 at 12:00 until the 28 at 21:00 UTC


281100Z 2812/2821 VRB05KT CAVOK



MET'MAP, your aeronautical weather chart ! - Copyright ORBIFLY December 2007 - Disclaimer

ORBIFLY MET'MAP TEAM :

Programming & Development : Alexandra Zaïnal
Concept & original design : Baudouin d'Aumeries
Assistance for programming : Marc-Olivier Méhu
Technical & hardware support : Manuel Goepfert

Contact : metmap@orbifly.com




SOURCES & CREDITS :

   NOAA